sensor_id;sensor_type;location;lat;lon;timestamp;pressure;altitude;pressure_sealevel;temperature;humidity
40920;BME280;26652;50.280;19.026;2023-06-26T00:01:04;98381.50;;;17.47;87.43
40920;BME280;26652;50.280;19.026;2023-06-26T00:03:25;98377.56;;;17.32;89.05
40920;BME280;26652;50.280;19.026;2023-06-26T00:05:26;98369.94;;;17.26;89.09
40920;BME280;26652;50.280;19.026;2023-06-26T00:07:29;98376.31;;;17.35;85.12
40920;BME280;26652;50.280;19.026;2023-06-26T00:09:32;98372.50;;;17.14;86.18
40920;BME280;26652;50.280;19.026;2023-06-26T00:11:32;98379.88;;;17.22;85.75
40920;BME280;26652;50.280;19.026;2023-06-26T00:13:34;98374.09;;;17.27;86.52
40920;BME280;26652;50.280;19.026;2023-06-26T00:15:34;98376.78;;;17.32;85.41
40920;BME280;26652;50.280;19.026;2023-06-26T00:17:35;98384.38;;;17.39;85.00
40920;BME280;26652;50.280;19.026;2023-06-26T00:19:37;98370.69;;;17.15;86.69
40920;BME280;26652;50.280;19.026;2023-06-26T00:21:38;98372.63;;;17.19;86.39
40920;BME280;26652;50.280;19.026;2023-06-26T00:23:39;98373.16;;;17.10;86.55
40920;BME280;26652;50.280;19.026;2023-06-26T00:25:40;98362.41;;;17.01;87.57
40920;BME280;26652;50.280;19.026;2023-06-26T00:27:40;98367.97;;;16.98;89.64
40920;BME280;26652;50.280;19.026;2023-06-26T00:29:41;98380.44;;;17.13;89.61
40920;BME280;26652;50.280;19.026;2023-06-26T00:31:42;98374.34;;;16.95;92.03
40920;BME280;26652;50.280;19.026;2023-06-26T00:33:43;98390.81;;;17.06;90.44
40920;BME280;26652;50.280;19.026;2023-06-26T00:35:43;98377.91;;;16.94;89.09
40920;BME280;26652;50.280;19.026;2023-06-26T00:37:44;98373.78;;;16.93;88.58
40920;BME280;26652;50.280;19.026;2023-06-26T00:39:45;98367.88;;;17.05;87.63
40920;BME280;26652;50.280;19.026;2023-06-26T00:41:46;98352.38;;;16.81;88.63
40920;BME280;26652;50.280;19.026;2023-06-26T00:43:46;98360.78;;;16.88;91.39
40920;BME280;26652;50.280;19.026;2023-06-26T00:45:47;98369.84;;;16.91;92.15
40920;BME280;26652;50.280;19.026;2023-06-26T00:47:48;98377.03;;;17.00;90.51
40920;BME280;26652;50.280;19.026;2023-06-26T00:49:49;98360.66;;;16.83;89.90
40920;BME280;26652;50.280;19.026;2023-06-26T00:51:50;98374.31;;;16.84;91.45
40920;BME280;26652;50.280;19.026;2023-06-26T00:53:51;98364.03;;;16.84;92.30
40920;BME280;26652;50.280;19.026;2023-06-26T00:55:51;98361.38;;;16.60;92.24
40920;BME280;26652;50.280;19.026;2023-06-26T00:57:53;98372.78;;;16.64;92.41
40920;BME280;26652;50.280;19.026;2023-06-26T00:59:55;98365.66;;;16.48;93.96
40920;BME280;26652;50.280;19.026;2023-06-26T01:01:56;98371.28;;;16.57;92.59
40920;BME280;26652;50.280;19.026;2023-06-26T01:03:57;98366.88;;;16.46;93.08
40920;BME280;26652;50.280;19.026;2023-06-26T01:05:58;98363.03;;;16.55;93.28
40920;BME280;26652;50.280;19.026;2023-06-26T01:07:59;98356.47;;;16.41;95.56
40920;BME280;26652;50.280;19.026;2023-06-26T01:10:00;98354.03;;;16.46;95.52
40920;BME280;26652;50.280;19.026;2023-06-26T01:12:01;98356.66;;;16.57;92.79
40920;BME280;26652;50.280;19.026;2023-06-26T01:14:03;98355.75;;;16.52;93.67
40920;BME280;26652;50.280;19.026;2023-06-26T01:16:04;98360.09;;;16.51;94.89
40920;BME280;26652;50.280;19.026;2023-06-26T01:18:06;98338.25;;;16.60;94.15
40920;BME280;26652;50.280;19.026;2023-06-26T01:20:07;98353.44;;;16.62;94.72
40920;BME280;26652;50.280;19.026;2023-06-26T01:24:32;98358.31;;;16.52;95.60
40920;BME280;26652;50.280;19.026;2023-06-26T01:26:35;98351.97;;;16.36;95.36
40920;BME280;26652;50.280;19.026;2023-06-26T01:28:38;98341.56;;;16.31;95.70
40920;BME280;26652;50.280;19.026;2023-06-26T01:30:43;98354.97;;;16.33;96.92
40920;BME280;26652;50.280;19.026;2023-06-26T01:32:44;98341.28;;;16.21;97.64
40920;BME280;26652;50.280;19.026;2023-06-26T01:34:46;98345.72;;;16.32;96.77
40920;BME280;26652;50.280;19.026;2023-06-26T01:36:46;98333.94;;;16.24;97.04
40920;BME280;26652;50.280;19.026;2023-06-26T01:38:47;98350.06;;;16.31;96.93
40920;BME280;26652;50.280;19.026;2023-06-26T01:40:48;98346.66;;;16.19;96.85
40920;BME280;26652;50.280;19.026;2023-06-26T01:42:50;98352.34;;;16.21;97.35
40920;BME280;26652;50.280;19.026;2023-06-26T01:44:55;98337.09;;;16.08;97.61
40920;BME280;26652;50.280;19.026;2023-06-26T01:49:16;98356.28;;;16.06;98.61
40920;BME280;26652;50.280;19.026;2023-06-26T01:51:25;98355.22;;;16.13;96.76
40920;BME280;26652;50.280;19.026;2023-06-26T01:53:33;98341.66;;;16.06;96.82
40920;BME280;26652;50.280;19.026;2023-06-26T01:56:03;98328.91;;;15.99;97.03
40920;BME280;26652;50.280;19.026;2023-06-26T01:58:07;98331.59;;;16.05;98.32
40920;BME280;26652;50.280;19.026;2023-06-26T02:00:10;98335.75;;;16.06;98.39
40920;BME280;26652;50.280;19.026;2023-06-26T02:02:12;98338.44;;;16.11;97.97
40920;BME280;26652;50.280;19.026;2023-06-26T02:04:13;98336.09;;;16.09;97.98
40920;BME280;26652;50.280;19.026;2023-06-26T02:06:14;98337.09;;;16.08;97.16
40920;BME280;26652;50.280;19.026;2023-06-26T02:08:15;98326.09;;;16.19;96.52
40920;BME280;26652;50.280;19.026;2023-06-26T02:10:15;98322.09;;;16.23;97.81
40920;BME280;26652;50.280;19.026;2023-06-26T02:12:16;98317.59;;;16.37;95.74
40920;BME280;26652;50.280;19.026;2023-06-26T02:14:17;98319.88;;;16.27;96.44
40920;BME280;26652;50.280;19.026;2023-06-26T02:16:18;98333.13;;;16.42;95.99
40920;BME280;26652;50.280;19.026;2023-06-26T02:18:18;98330.00;;;16.40;94.60
40920;BME280;26652;50.280;19.026;2023-06-26T02:20:22;98320.31;;;16.24;95.08
40920;BME280;26652;50.280;19.026;2023-06-26T02:22:22;98333.16;;;16.24;94.54
40920;BME280;26652;50.280;19.026;2023-06-26T02:24:23;98328.88;;;16.18;95.49
40920;BME280;26652;50.280;19.026;2023-06-26T02:26:24;98324.88;;;16.22;96.46
40920;BME280;26652;50.280;19.026;2023-06-26T02:28:25;98341.44;;;16.26;95.61
40920;BME280;26652;50.280;19.026;2023-06-26T02:30:26;98332.66;;;16.33;93.09
40920;BME280;26652;50.280;19.026;2023-06-26T02:32:26;98334.91;;;16.42;93.10
40920;BME280;26652;50.280;19.026;2023-06-26T02:34:27;98333.13;;;16.42;93.38
40920;BME280;26652;50.280;19.026;2023-06-26T02:36:28;98324.50;;;16.37;94.34
40920;BME280;26652;50.280;19.026;2023-06-26T02:38:29;98345.06;;;16.37;96.24
40920;BME280;26652;50.280;19.026;2023-06-26T02:40:29;98356.56;;;16.34;95.70
40920;BME280;26652;50.280;19.026;2023-06-26T02:42:31;98335.22;;;16.33;94.38
40920;BME280;26652;50.280;19.026;2023-06-26T02:44:32;98335.13;;;16.40;93.91
40920;BME280;26652;50.280;19.026;2023-06-26T02:46:33;98339.53;;;16.51;93.00
40920;BME280;26652;50.280;19.026;2023-06-26T02:48:34;98338.75;;;16.51;92.93
40920;BME280;26652;50.280;19.026;2023-06-26T02:50:35;98333.50;;;16.46;93.44
40920;BME280;26652;50.280;19.026;2023-06-26T02:52:36;98340.53;;;16.50;92.78
40920;BME280;26652;50.280;19.026;2023-06-26T02:54:36;98343.13;;;16.50;93.35
40920;BME280;26652;50.280;19.026;2023-06-26T02:56:37;98330.34;;;16.44;93.36
40920;BME280;26652;50.280;19.026;2023-06-26T02:58:38;98360.59;;;16.60;92.78
40920;BME280;26652;50.280;19.026;2023-06-26T03:00:39;98350.56;;;16.40;93.51
40920;BME280;26652;50.280;19.026;2023-06-26T03:02:41;98341.28;;;16.39;94.07
40920;BME280;26652;50.280;19.026;2023-06-26T03:04:42;98329.00;;;16.41;93.49
40920;BME280;26652;50.280;19.026;2023-06-26T03:06:43;98349.16;;;16.56;93.11
40920;BME280;26652;50.280;19.026;2023-06-26T03:08:44;98343.41;;;16.42;95.02
40920;BME280;26652;50.280;19.026;2023-06-26T03:10:45;98333.91;;;16.43;95.41
40920;BME280;26652;50.280;19.026;2023-06-26T03:12:46;98333.91;;;16.43;96.15
40920;BME280;26652;50.280;19.026;2023-06-26T03:14:46;98323.50;;;16.38;94.21
40920;BME280;26652;50.280;19.026;2023-06-26T03:16:47;98338.72;;;16.39;96.52
40920;BME280;26652;50.280;19.026;2023-06-26T03:18:48;98340.22;;;16.28;97.12
40920;BME280;26652;50.280;19.026;2023-06-26T03:20:49;98327.03;;;16.07;96.70
40920;BME280;26652;50.280;19.026;2023-06-26T03:22:50;98341.00;;;16.29;97.67
40920;BME280;26652;50.280;19.026;2023-06-26T03:24:51;98330.75;;;16.11;98.61
40920;BME280;26652;50.280;19.026;2023-06-26T03:26:51;98336.16;;;16.02;99.54
40920;BME280;26652;50.280;19.026;2023-06-26T03:28:53;98337.94;;;16.20;99.28
40920;BME280;26652;50.280;19.026;2023-06-26T03:30:54;98343.41;;;16.42;97.79
40920;BME280;26652;50.280;19.026;2023-06-26T03:32:55;98330.44;;;16.37;97.94
40920;BME280;26652;50.280;19.026;2023-06-26T03:34:55;98334.75;;;16.55;96.02
40920;BME280;26652;50.280;19.026;2023-06-26T03:36:57;98343.38;;;16.60;94.33
40920;BME280;26652;50.280;19.026;2023-06-26T03:38:57;98338.81;;;16.62;94.11
40920;BME280;26652;50.280;19.026;2023-06-26T03:40:58;98346.56;;;16.74;93.84
40920;BME280;26652;50.280;19.026;2023-06-26T03:42:59;98339.75;;;16.80;94.90
40920;BME280;26652;50.280;19.026;2023-06-26T03:45:00;98338.53;;;16.82;93.19
40920;BME280;26652;50.280;19.026;2023-06-26T03:47:01;98336.97;;;16.81;94.54
40920;BME280;26652;50.280;19.026;2023-06-26T03:49:02;98338.41;;;16.77;95.55
40920;BME280;26652;50.280;19.026;2023-06-26T03:51:02;98343.47;;;16.84;94.64
40920;BME280;26652;50.280;19.026;2023-06-26T03:53:03;98344.84;;;16.98;95.57
40920;BME280;26652;50.280;19.026;2023-06-26T03:55:04;98358.81;;;17.02;97.00
40920;BME280;26652;50.280;19.026;2023-06-26T03:57:05;98334.00;;;17.08;96.58
40920;BME280;26652;50.280;19.026;2023-06-26T03:59:06;98332.34;;;17.25;93.07
40920;BME280;26652;50.280;19.026;2023-06-26T04:01:07;98341.63;;;17.26;93.87
40920;BME280;26652;50.280;19.026;2023-06-26T04:03:07;98345.44;;;17.35;91.47
40920;BME280;26652;50.280;19.026;2023-06-26T04:05:10;98352.28;;;17.41;93.32
40920;BME280;26652;50.280;19.026;2023-06-26T04:07:10;98341.31;;;17.46;93.14
40920;BME280;26652;50.280;19.026;2023-06-26T04:09:11;98339.53;;;17.46;92.21
40920;BME280;26652;50.280;19.026;2023-06-26T04:11:12;98347.38;;;17.63;91.34
40920;BME280;26652;50.280;19.026;2023-06-26T04:13:14;98337.28;;;17.61;88.06
40920;BME280;26652;50.280;19.026;2023-06-26T04:15:15;98348.13;;;17.75;87.71
40920;BME280;26652;50.280;19.026;2023-06-26T04:17:16;98355.28;;;17.85;86.87
40920;BME280;26652;50.280;19.026;2023-06-26T04:19:16;98344.78;;;17.86;89.70
40920;BME280;26652;50.280;19.026;2023-06-26T04:21:17;98346.00;;;17.84;90.64
40920;BME280;26652;50.280;19.026;2023-06-26T04:23:18;98357.75;;;18.03;88.49
40920;BME280;26652;50.280;19.026;2023-06-26T04:25:19;98352.59;;;18.03;88.14
40920;BME280;26652;50.280;19.026;2023-06-26T04:27:20;98359.63;;;18.08;85.05
40920;BME280;26652;50.280;19.026;2023-06-26T04:29:21;98342.59;;;18.07;84.75
40920;BME280;26652;50.280;19.026;2023-06-26T04:31:21;98323.13;;;17.99;84.57
40920;BME280;26652;50.280;19.026;2023-06-26T04:33:23;98335.06;;;18.17;83.82
40920;BME280;26652;50.280;19.026;2023-06-26T04:35:23;98336.50;;;18.24;83.52
40920;BME280;26652;50.280;19.026;2023-06-26T04:37:25;98339.97;;;18.30;84.36
40920;BME280;26652;50.280;19.026;2023-06-26T04:39:26;98344.41;;;18.46;83.01
40920;BME280;26652;50.280;19.026;2023-06-26T04:41:27;98344.59;;;18.56;82.97
40920;BME280;26652;50.280;19.026;2023-06-26T04:43:27;98348.84;;;18.63;80.76
40920;BME280;26652;50.280;19.026;2023-06-26T04:45:28;98339.56;;;18.78;80.57
40920;BME280;26652;50.280;19.026;2023-06-26T04:47:29;98343.47;;;18.98;79.46
40920;BME280;26652;50.280;19.026;2023-06-26T04:49:30;98349.34;;;19.10;78.11
40920;BME280;26652;50.280;19.026;2023-06-26T04:51:30;98354.38;;;19.33;77.73
40920;BME280;26652;50.280;19.026;2023-06-26T04:53:31;98346.47;;;19.56;76.79
40920;BME280;26652;50.280;19.026;2023-06-26T04:55:32;98349.44;;;19.87;75.09
40920;BME280;26652;50.280;19.026;2023-06-26T04:57:33;98346.06;;;20.30;72.64
40920;BME280;26652;50.280;19.026;2023-06-26T04:59:34;98352.38;;;20.61;70.65
40920;BME280;26652;50.280;19.026;2023-06-26T05:01:34;98367.38;;;20.91;69.54
40920;BME280;26652;50.280;19.026;2023-06-26T05:03:39;98358.47;;;21.41;67.26
40920;BME280;26652;50.280;19.026;2023-06-26T05:05:40;98361.59;;;21.90;64.40
40920;BME280;26652;50.280;19.026;2023-06-26T05:07:41;98364.88;;;22.28;63.09
40920;BME280;26652;50.280;19.026;2023-06-26T05:09:43;98370.44;;;22.72;62.64
40920;BME280;26652;50.280;19.026;2023-06-26T05:11:43;98362.13;;;23.51;60.14
40920;BME280;26652;50.280;19.026;2023-06-26T05:13:44;98374.78;;;24.53;56.53
40920;BME280;26652;50.280;19.026;2023-06-26T05:15:45;98382.50;;;25.36;53.97
40920;BME280;26652;50.280;19.026;2023-06-26T05:17:46;98389.22;;;26.19;52.36
40920;BME280;26652;50.280;19.026;2023-06-26T05:19:47;98383.81;;;26.34;52.32
40920;BME280;26652;50.280;19.026;2023-06-26T05:21:49;98384.66;;;26.86;50.56
40920;BME280;26652;50.280;19.026;2023-06-26T05:23:52;98380.88;;;26.78;49.46
40920;BME280;26652;50.280;19.026;2023-06-26T05:25:55;98364.94;;;25.99;50.66
40920;BME280;26652;50.280;19.026;2023-06-26T05:27:57;98371.44;;;25.20;51.96
40920;BME280;26652;50.280;19.026;2023-06-26T05:29:58;98365.44;;;24.47;54.95
40920;BME280;26652;50.280;19.026;2023-06-26T05:31:59;98370.44;;;23.73;57.41
40920;BME280;26652;50.280;19.026;2023-06-26T05:34:02;98367.34;;;23.41;58.14
40920;BME280;26652;50.280;19.026;2023-06-26T05:36:04;98360.63;;;22.79;59.52
40920;BME280;26652;50.280;19.026;2023-06-26T05:38:06;98364.44;;;22.56;61.43
40920;BME280;26652;50.280;19.026;2023-06-26T05:40:08;98366.47;;;22.44;61.36
40920;BME280;26652;50.280;19.026;2023-06-26T05:42:10;98357.00;;;22.02;62.96
40920;BME280;26652;50.280;19.026;2023-06-26T05:44:11;98358.25;;;21.95;63.16
40920;BME280;26652;50.280;19.026;2023-06-26T05:46:12;98356.09;;;21.76;64.38
40920;BME280;26652;50.280;19.026;2023-06-26T05:48:12;98369.81;;;21.72;64.96
40920;BME280;26652;50.280;19.026;2023-06-26T05:50:14;98360.06;;;21.47;65.67
40920;BME280;26652;50.280;19.026;2023-06-26T05:52:15;98348.97;;;21.19;66.56
40920;BME280;26652;50.280;19.026;2023-06-26T05:54:16;98353.09;;;21.15;67.01
40920;BME280;26652;50.280;19.026;2023-06-26T05:56:17;98349.38;;;21.06;66.85
40920;BME280;26652;50.280;19.026;2023-06-26T05:58:20;98357.22;;;21.16;67.84
40920;BME280;26652;50.280;19.026;2023-06-26T06:00:22;98360.56;;;21.12;68.27
40920;BME280;26652;50.280;19.026;2023-06-26T06:02:23;98343.97;;;21.08;67.42
40920;BME280;26652;50.280;19.026;2023-06-26T06:04:23;98358.25;;;21.15;69.82
40920;BME280;26652;50.280;19.026;2023-06-26T06:06:24;98346.38;;;21.19;69.02
40920;BME280;26652;50.280;19.026;2023-06-26T06:08:25;98333.75;;;21.23;68.75
40920;BME280;26652;50.280;19.026;2023-06-26T06:10:26;98343.00;;;21.19;67.85
40920;BME280;26652;50.280;19.026;2023-06-26T06:12:27;98347.91;;;21.15;68.65
40920;BME280;26652;50.280;19.026;2023-06-26T06:14:28;98344.53;;;21.15;68.58
40920;BME280;26652;50.280;19.026;2023-06-26T06:16:29;98338.63;;;21.19;69.05
40920;BME280;26652;50.280;19.026;2023-06-26T06:18:30;98345.97;;;21.28;68.46
40920;BME280;26652;50.280;19.026;2023-06-26T06:20:30;98356.63;;;21.36;68.24
40920;BME280;26652;50.280;19.026;2023-06-26T06:22:31;98340.88;;;21.11;67.86
40920;BME280;26652;50.280;19.026;2023-06-26T06:24:32;98333.38;;;21.09;67.63
40920;BME280;26652;50.280;19.026;2023-06-26T06:26:33;98344.88;;;21.24;67.35
40920;BME280;26652;50.280;19.026;2023-06-26T06:28:33;98355.25;;;21.24;67.56
40920;BME280;26652;50.280;19.026;2023-06-26T06:30:34;98349.34;;;21.33;67.91
40920;BME280;26652;50.280;19.026;2023-06-26T06:32:35;98349.94;;;21.40;67.80
40920;BME280;26652;50.280;19.026;2023-06-26T06:34:36;98353.16;;;21.63;67.98
40920;BME280;26652;50.280;19.026;2023-06-26T06:36:36;98344.13;;;21.65;68.28
40920;BME280;26652;50.280;19.026;2023-06-26T06:38:37;98352.69;;;21.71;67.43
40920;BME280;26652;50.280;19.026;2023-06-26T06:40:38;98337.13;;;21.66;65.21
40920;BME280;26652;50.280;19.026;2023-06-26T06:42:39;98357.69;;;21.87;65.11
40920;BME280;26652;50.280;19.026;2023-06-26T06:44:40;98362.38;;;21.91;64.57
40920;BME280;26652;50.280;19.026;2023-06-26T06:46:41;98350.69;;;21.88;64.31
40920;BME280;26652;50.280;19.026;2023-06-26T06:48:41;98359.59;;;22.02;64.64
40920;BME280;26652;50.280;19.026;2023-06-26T06:50:42;98350.28;;;22.06;64.79
40920;BME280;26652;50.280;19.026;2023-06-26T06:52:43;98352.81;;;22.01;65.15
40920;BME280;26652;50.280;19.026;2023-06-26T06:54:57;98362.72;;;22.04;64.01
40920;BME280;26652;50.280;19.026;2023-06-26T06:57:05;98347.63;;;21.96;63.24
40920;BME280;26652;50.280;19.026;2023-06-26T06:59:06;98348.19;;;22.03;63.99
40920;BME280;26652;50.280;19.026;2023-06-26T07:01:07;98356.50;;;22.05;64.51
40920;BME280;26652;50.280;19.026;2023-06-26T07:03:08;98368.22;;;22.18;63.47
40920;BME280;26652;50.280;19.026;2023-06-26T07:05:11;98347.19;;;22.14;63.88
40920;BME280;26652;50.280;19.026;2023-06-26T07:07:13;98363.84;;;22.29;61.88
40920;BME280;26652;50.280;19.026;2023-06-26T07:09:16;98350.09;;;22.28;61.02
40920;BME280;26652;50.280;19.026;2023-06-26T07:11:17;98353.78;;;22.52;60.27
40920;BME280;26652;50.280;19.026;2023-06-26T07:13:18;98355.13;;;22.70;60.43
40920;BME280;26652;50.280;19.026;2023-06-26T07:15:18;98351.50;;;22.76;59.36
40920;BME280;26652;50.280;19.026;2023-06-26T07:17:19;98346.88;;;22.83;59.17
40920;BME280;26652;50.280;19.026;2023-06-26T07:19:21;98354.38;;;23.10;59.43
40920;BME280;26652;50.280;19.026;2023-06-26T07:21:22;98358.78;;;23.25;58.71
40920;BME280;26652;50.280;19.026;2023-06-26T07:23:23;98350.97;;;23.35;59.41
40920;BME280;26652;50.280;19.026;2023-06-26T07:25:24;98359.53;;;23.56;58.40
40920;BME280;26652;50.280;19.026;2023-06-26T07:27:24;98352.25;;;23.68;58.04
40920;BME280;26652;50.280;19.026;2023-06-26T07:29:26;98343.91;;;23.76;56.44
40920;BME280;26652;50.280;19.026;2023-06-26T07:31:26;98354.78;;;23.89;56.25
40920;BME280;26652;50.280;19.026;2023-06-26T07:33:27;98365.63;;;24.01;54.73
40920;BME280;26652;50.280;19.026;2023-06-26T07:35:29;98346.09;;;24.08;53.45
40920;BME280;26652;50.280;19.026;2023-06-26T07:37:30;98348.38;;;24.20;53.42
40920;BME280;26652;50.280;19.026;2023-06-26T07:39:30;98360.78;;;24.43;53.39
40920;BME280;26652;50.280;19.026;2023-06-26T07:41:31;98348.78;;;24.48;54.32
40920;BME280;26652;50.280;19.026;2023-06-26T07:43:32;98353.28;;;24.76;54.27
40920;BME280;26652;50.280;19.026;2023-06-26T07:45:33;98354.94;;;25.01;53.54
40920;BME280;26652;50.280;19.026;2023-06-26T07:47:33;98363.84;;;25.24;50.87
40920;BME280;26652;50.280;19.026;2023-06-26T07:49:34;98359.84;;;25.36;51.12
40920;BME280;26652;50.280;19.026;2023-06-26T07:51:35;98364.94;;;25.47;50.35
40920;BME280;26652;50.280;19.026;2023-06-26T07:53:36;98354.69;;;25.55;51.44
40920;BME280;26652;50.280;19.026;2023-06-26T07:55:36;98344.88;;;25.47;50.52
40920;BME280;26652;50.280;19.026;2023-06-26T07:57:37;98358.50;;;25.39;50.48
40920;BME280;26652;50.280;19.026;2023-06-26T07:59:38;98367.66;;;25.36;50.97
40920;BME280;26652;50.280;19.026;2023-06-26T08:01:39;98359.28;;;25.39;51.29
40920;BME280;26652;50.280;19.026;2023-06-26T08:03:40;98348.72;;;25.55;52.12
40920;BME280;26652;50.280;19.026;2023-06-26T08:05:41;98363.41;;;25.46;49.64
40920;BME280;26652;50.280;19.026;2023-06-26T08:07:41;98366.09;;;25.35;49.08
40920;BME280;26652;50.280;19.026;2023-06-26T08:09:42;98361.34;;;25.14;50.16
40920;BME280;26652;50.280;19.026;2023-06-26T08:11:43;98352.22;;;24.82;51.17
40920;BME280;26652;50.280;19.026;2023-06-26T08:13:44;98348.09;;;24.76;49.01
40920;BME280;26652;50.280;19.026;2023-06-26T08:15:45;98369.38;;;24.83;48.38
40920;BME280;26652;50.280;19.026;2023-06-26T08:17:48;98360.53;;;24.84;48.69
40920;BME280;26652;50.280;19.026;2023-06-26T08:19:51;98351.00;;;25.03;48.67
40920;BME280;26652;50.280;19.026;2023-06-26T08:21:52;98363.63;;;25.20;47.85
40920;BME280;26652;50.280;19.026;2023-06-26T08:23:52;98362.56;;;25.50;47.49
40920;BME280;26652;50.280;19.026;2023-06-26T08:25:54;98360.63;;;25.61;48.43
40920;BME280;26652;50.280;19.026;2023-06-26T08:27:54;98350.28;;;25.80;45.93
40920;BME280;26652;50.280;19.026;2023-06-26T08:29:56;98356.53;;;26.02;45.25
40920;BME280;26652;50.280;19.026;2023-06-26T08:31:56;98347.44;;;26.00;45.22
40920;BME280;26652;50.280;19.026;2023-06-26T08:33:57;98352.38;;;26.20;45.77
40920;BME280;26652;50.280;19.026;2023-06-26T08:35:58;98353.88;;;26.26;46.44
40920;BME280;26652;50.280;19.026;2023-06-26T08:37:59;98354.69;;;26.46;47.13
40920;BME280;26652;50.280;19.026;2023-06-26T08:40:00;98359.16;;;26.21;47.63
40920;BME280;26652;50.280;19.026;2023-06-26T08:42:01;98345.13;;;25.74;47.97
40920;BME280;26652;50.280;19.026;2023-06-26T08:44:02;98355.75;;;25.83;49.56
40920;BME280;26652;50.280;19.026;2023-06-26T08:46:03;98369.28;;;25.85;48.82
40920;BME280;26652;50.280;19.026;2023-06-26T08:48:07;98362.16;;;25.91;49.72
40920;BME280;26652;50.280;19.026;2023-06-26T08:50:10;98359.63;;;26.04;49.45
40920;BME280;26652;50.280;19.026;2023-06-26T08:52:30;98342.69;;;26.02;50.60
40920;BME280;26652;50.280;19.026;2023-06-26T08:54:36;98358.63;;;26.00;48.51
40920;BME280;26652;50.280;19.026;2023-06-26T08:56:44;98357.91;;;25.76;47.85
40920;BME280;26652;50.280;19.026;2023-06-26T08:58:49;98338.47;;;25.34;48.53
40920;BME280;26652;50.280;19.026;2023-06-26T09:00:50;98328.97;;;24.91;50.58
40920;BME280;26652;50.280;19.026;2023-06-26T09:02:51;98345.97;;;25.12;49.68
40920;BME280;26652;50.280;19.026;2023-06-26T09:04:52;98336.47;;;25.26;50.04
40920;BME280;26652;50.280;19.026;2023-06-26T09:06:53;98340.50;;;25.42;50.70
40920;BME280;26652;50.280;19.026;2023-06-26T09:08:55;98346.53;;;25.09;49.77
40920;BME280;26652;50.280;19.026;2023-06-26T09:10:56;98342.66;;;25.06;49.64
40920;BME280;26652;50.280;19.026;2023-06-26T09:12:56;98345.25;;;25.35;50.94
40920;BME280;26652;50.280;19.026;2023-06-26T09:14:58;98340.91;;;25.26;50.36
40920;BME280;26652;50.280;19.026;2023-06-26T09:17:00;98355.78;;;25.25;47.66
40920;BME280;26652;50.280;19.026;2023-06-26T09:19:01;98337.47;;;25.01;49.02
40920;BME280;26652;50.280;19.026;2023-06-26T09:21:08;98352.25;;;25.11;48.20
40920;BME280;26652;50.280;19.026;2023-06-26T09:23:10;98336.63;;;25.11;49.65
40920;BME280;26652;50.280;19.026;2023-06-26T09:25:10;98355.78;;;25.25;47.80
40920;BME280;26652;50.280;19.026;2023-06-26T09:27:12;98344.06;;;25.23;47.11
40920;BME280;26652;50.280;19.026;2023-06-26T09:29:13;98337.34;;;25.17;48.29
40920;BME280;26652;50.280;19.026;2023-06-26T09:31:15;98333.28;;;25.05;48.14
40920;BME280;26652;50.280;19.026;2023-06-26T09:33:18;98327.78;;;25.07;48.10
40920;BME280;26652;50.280;19.026;2023-06-26T09:35:20;98340.72;;;25.17;48.29
40920;BME280;26652;50.280;19.026;2023-06-26T09:37:20;98334.97;;;25.20;46.23
40920;BME280;26652;50.280;19.026;2023-06-26T09:39:21;98330.94;;;25.04;47.11
40920;BME280;26652;50.280;19.026;2023-06-26T09:41:22;98334.41;;;24.94;47.19
40920;BME280;26652;50.280;19.026;2023-06-26T09:43:23;98330.44;;;24.68;47.22
40920;BME280;26652;50.280;19.026;2023-06-26T09:45:24;98324.81;;;24.51;46.88
40920;BME280;26652;50.280;19.026;2023-06-26T09:47:25;98319.09;;;24.54;49.47
40920;BME280;26652;50.280;19.026;2023-06-26T09:49:25;98335.25;;;24.85;46.99
40920;BME280;26652;50.280;19.026;2023-06-26T09:51:29;98317.72;;;24.95;45.95
40920;BME280;26652;50.280;19.026;2023-06-26T09:53:30;98322.91;;;25.29;46.10
40920;BME280;26652;50.280;19.026;2023-06-26T09:55:34;98320.59;;;25.52;47.51
40920;BME280;26652;50.280;19.026;2023-06-26T09:57:35;98333.94;;;25.74;45.70
40920;BME280;26652;50.280;19.026;2023-06-26T09:59:36;98317.53;;;25.92;43.91
40920;BME280;26652;50.280;19.026;2023-06-26T10:01:40;98310.22;;;25.94;46.10
40920;BME280;26652;50.280;19.026;2023-06-26T10:03:41;98316.00;;;26.10;46.11
40920;BME280;26652;50.280;19.026;2023-06-26T10:05:42;98319.16;;;26.26;47.25
40920;BME280;26652;50.280;19.026;2023-06-26T10:07:45;98304.00;;;26.28;45.45
40920;BME280;26652;50.280;19.026;2023-06-26T10:09:47;98313.03;;;26.17;44.87
40920;BME280;26652;50.280;19.026;2023-06-26T10:11:56;98308.66;;;26.12;44.69
40920;BME280;26652;50.280;19.026;2023-06-26T10:13:58;98310.72;;;25.96;45.08
40920;BME280;26652;50.280;19.026;2023-06-26T10:16:01;98318.75;;;26.00;45.69
40920;BME280;26652;50.280;19.026;2023-06-26T10:18:01;98314.09;;;25.97;45.55
40920;BME280;26652;50.280;19.026;2023-06-26T10:20:03;98308.38;;;25.95;45.41
40920;BME280;26652;50.280;19.026;2023-06-26T10:22:07;98305.31;;;25.69;45.51
40920;BME280;26652;50.280;19.026;2023-06-26T10:24:10;98310.69;;;25.78;44.23
40920;BME280;26652;50.280;19.026;2023-06-26T10:26:14;98293.59;;;25.66;44.65
40920;BME280;26652;50.280;19.026;2023-06-26T10:28:16;98305.91;;;25.85;46.25
40920;BME280;26652;50.280;19.026;2023-06-26T10:30:20;98290.09;;;25.76;47.50
40920;BME280;26652;50.280;19.026;2023-06-26T10:32:25;98285.03;;;25.61;45.98
40920;BME280;26652;50.280;19.026;2023-06-26T10:34:26;98299.13;;;25.84;44.59
40920;BME280;26652;50.280;19.026;2023-06-26T10:36:29;98298.50;;;26.11;45.35
40920;BME280;26652;50.280;19.026;2023-06-26T10:38:51;98295.97;;;26.43;43.37
40920;BME280;26652;50.280;19.026;2023-06-26T10:40:52;98287.50;;;26.51;44.61